sensor_id;sensor_type;location;lat;lon;timestamp;temperature;humidity
63802;DHT22;49949;43.060;25.624;2024-03-22T00:00:14;5.10;99.90
63802;DHT22;49949;43.060;25.624;2024-03-22T00:02:40;5.10;99.90
63802;DHT22;49949;43.060;25.624;2024-03-22T00:05:06;5.20;99.90
63802;DHT22;49949;43.060;25.624;2024-03-22T00:07:31;5.20;99.90
63802;DHT22;49949;43.060;25.624;2024-03-22T00:09:57;5.20;99.90
63802;DHT22;49949;43.060;25.624;2024-03-22T00:12:23;5.10;99.90
63802;DHT22;49949;43.060;25.624;2024-03-22T00:14:48;5.10;99.90
63802;DHT22;49949;43.060;25.624;2024-03-22T00:17:16;5.00;99.90
63802;DHT22;49949;43.060;25.624;2024-03-22T00:19:42;4.90;99.90
63802;DHT22;49949;43.060;25.624;2024-03-22T00:22:08;4.90;99.90
63802;DHT22;49949;43.060;25.624;2024-03-22T00:24:34;4.90;99.90
63802;DHT22;49949;43.060;25.624;2024-03-22T00:26:59;4.90;99.90
63802;DHT22;49949;43.060;25.624;2024-03-22T00:29:25;4.90;99.90
63802;DHT22;49949;43.060;25.624;2024-03-22T00:31:51;4.90;99.90
63802;DHT22;49949;43.060;25.624;2024-03-22T00:34:17;4.90;99.90
63802;DHT22;49949;43.060;25.624;2024-03-22T00:36:43;4.80;99.90
63802;DHT22;49949;43.060;25.624;2024-03-22T00:39:08;4.60;99.90
63802;DHT22;49949;43.060;25.624;2024-03-22T00:41:34;4.60;99.90
63802;DHT22;49949;43.060;25.624;2024-03-22T00:44:00;4.50;99.90
63802;DHT22;49949;43.060;25.624;2024-03-22T00:46:26;4.50;99.90
63802;DHT22;49949;43.060;25.624;2024-03-22T00:48:51;4.60;99.90
63802;DHT22;49949;43.060;25.624;2024-03-22T00:51:17;4.60;99.90
63802;DHT22;49949;43.060;25.624;2024-03-22T00:53:43;4.50;99.90
63802;DHT22;49949;43.060;25.624;2024-03-22T00:56:08;4.30;99.90
63802;DHT22;49949;43.060;25.624;2024-03-22T00:58:34;4.10;99.90
63802;DHT22;49949;43.060;25.624;2024-03-22T01:01:00;4.10;99.90
63802;DHT22;49949;43.060;25.624;2024-03-22T01:03:25;4.00;99.90
63802;DHT22;49949;43.060;25.624;2024-03-22T01:05:51;4.10;99.90
63802;DHT22;49949;43.060;25.624;2024-03-22T01:08:17;4.00;99.90
63802;DHT22;49949;43.060;25.624;2024-03-22T01:10:42;4.00;99.90
63802;DHT22;49949;43.060;25.624;2024-03-22T01:13:08;4.00;99.90
63802;DHT22;49949;43.060;25.624;2024-03-22T01:15:34;4.00;99.90
63802;DHT22;49949;43.060;25.624;2024-03-22T01:18:00;3.80;99.90
63802;DHT22;49949;43.060;25.624;2024-03-22T01:20:25;3.60;99.90
63802;DHT22;49949;43.060;25.624;2024-03-22T01:22:51;3.60;99.90
63802;DHT22;49949;43.060;25.624;2024-03-22T01:25:17;3.60;99.90
63802;DHT22;49949;43.060;25.624;2024-03-22T01:27:42;3.50;99.90
63802;DHT22;49949;43.060;25.624;2024-03-22T01:30:08;3.50;99.90
63802;DHT22;49949;43.060;25.624;2024-03-22T01:32:35;3.40;99.90
63802;DHT22;49949;43.060;25.624;2024-03-22T01:35:01;3.40;99.90
63802;DHT22;49949;43.060;25.624;2024-03-22T01:37:26;3.30;99.90
63802;DHT22;49949;43.060;25.624;2024-03-22T01:39:52;3.10;99.90
63802;DHT22;49949;43.060;25.624;2024-03-22T01:42:18;3.10;99.90
63802;DHT22;49949;43.060;25.624;2024-03-22T01:44:43;3.00;99.90
63802;DHT22;49949;43.060;25.624;2024-03-22T01:47:09;3.00;99.90
63802;DHT22;49949;43.060;25.624;2024-03-22T01:49:35;3.00;99.90
63802;DHT22;49949;43.060;25.624;2024-03-22T01:52:01;2.90;99.90
63802;DHT22;49949;43.060;25.624;2024-03-22T01:54:28;2.80;99.90
63802;DHT22;49949;43.060;25.624;2024-03-22T01:56:56;2.60;99.90
63802;DHT22;49949;43.060;25.624;2024-03-22T01:59:22;2.60;99.90
63802;DHT22;49949;43.060;25.624;2024-03-22T02:01:48;2.60;99.90
63802;DHT22;49949;43.060;25.624;2024-03-22T02:04:14;2.60;99.90
63802;DHT22;49949;43.060;25.624;2024-03-22T02:06:40;2.60;99.90
63802;DHT22;49949;43.060;25.624;2024-03-22T02:09:06;2.60;99.90
63802;DHT22;49949;43.060;25.624;2024-03-22T02:11:36;2.60;99.90
63802;DHT22;49949;43.060;25.624;2024-03-22T02:14:03;2.50;99.90
63802;DHT22;49949;43.060;25.624;2024-03-22T02:16:29;2.30;99.90
63802;DHT22;49949;43.060;25.624;2024-03-22T02:18:55;2.30;99.90
63802;DHT22;49949;43.060;25.624;2024-03-22T02:21:21;2.20;99.90
63802;DHT22;49949;43.060;25.624;2024-03-22T02:23:46;2.10;99.90
63802;DHT22;49949;43.060;25.624;2024-03-22T02:26:12;2.10;99.90
63802;DHT22;49949;43.060;25.624;2024-03-22T02:28:38;2.00;99.90
63802;DHT22;49949;43.060;25.624;2024-03-22T02:31:04;2.00;99.90
63802;DHT22;49949;43.060;25.624;2024-03-22T02:33:30;2.00;99.90
63802;DHT22;49949;43.060;25.624;2024-03-22T02:35:56;1.90;99.90
63802;DHT22;49949;43.060;25.624;2024-03-22T02:38:22;1.80;99.90
63802;DHT22;49949;43.060;25.624;2024-03-22T02:40:49;1.80;99.90
63802;DHT22;49949;43.060;25.624;2024-03-22T02:43:15;1.80;99.90
63802;DHT22;49949;43.060;25.624;2024-03-22T02:45:43;1.80;99.90
63802;DHT22;49949;43.060;25.624;2024-03-22T02:48:08;1.70;99.90
63802;DHT22;49949;43.060;25.624;2024-03-22T02:50:38;1.50;99.90
63802;DHT22;49949;43.060;25.624;2024-03-22T02:53:04;1.50;99.90
63802;DHT22;49949;43.060;25.624;2024-03-22T02:55:35;1.50;99.90
63802;DHT22;49949;43.060;25.624;2024-03-22T02:58:01;1.50;99.90
63802;DHT22;49949;43.060;25.624;2024-03-22T03:00:28;1.50;99.90
63802;DHT22;49949;43.060;25.624;2024-03-22T03:02:53;1.50;99.90
63802;DHT22;49949;43.060;25.624;2024-03-22T03:05:19;1.50;99.90
63802;DHT22;49949;43.060;25.624;2024-03-22T03:07:45;1.40;99.90
63802;DHT22;49949;43.060;25.624;2024-03-22T03:10:12;1.30;99.90
63802;DHT22;49949;43.060;25.624;2024-03-22T03:12:38;1.20;99.90
63802;DHT22;49949;43.060;25.624;2024-03-22T03:15:04;1.20;99.90
63802;DHT22;49949;43.060;25.624;2024-03-22T03:17:29;1.20;99.90
63802;DHT22;49949;43.060;25.624;2024-03-22T03:19:55;1.20;99.90
63802;DHT22;49949;43.060;25.624;2024-03-22T03:22:21;1.10;99.90
63802;DHT22;49949;43.060;25.624;2024-03-22T03:24:46;1.00;99.90
63802;DHT22;49949;43.060;25.624;2024-03-22T03:27:12;1.00;99.90
63802;DHT22;49949;43.060;25.624;2024-03-22T03:29:38;1.00;99.90
63802;DHT22;49949;43.060;25.624;2024-03-22T03:32:03;1.00;99.90
63802;DHT22;49949;43.060;25.624;2024-03-22T03:34:29;1.00;99.90
63802;DHT22;49949;43.060;25.624;2024-03-22T03:36:55;0.90;99.90
63802;DHT22;49949;43.060;25.624;2024-03-22T03:39:21;0.90;99.90
63802;DHT22;49949;43.060;25.624;2024-03-22T03:41:46;0.90;99.90
63802;DHT22;49949;43.060;25.624;2024-03-22T03:44:12;0.80;99.90
63802;DHT22;49949;43.060;25.624;2024-03-22T03:46:38;0.70;99.90
63802;DHT22;49949;43.060;25.624;2024-03-22T03:49:03;0.70;99.90
63802;DHT22;49949;43.060;25.624;2024-03-22T03:51:29;0.80;99.90
63802;DHT22;49949;43.060;25.624;2024-03-22T03:53:55;0.70;99.90
63802;DHT22;49949;43.060;25.624;2024-03-22T03:56:20;0.70;99.90
63802;DHT22;49949;43.060;25.624;2024-03-22T03:58:46;0.60;99.90
63802;DHT22;49949;43.060;25.624;2024-03-22T04:01:12;0.60;99.90
63802;DHT22;49949;43.060;25.624;2024-03-22T04:03:38;0.60;99.90
63802;DHT22;49949;43.060;25.624;2024-03-22T04:06:03;0.60;99.90
63802;DHT22;49949;43.060;25.624;2024-03-22T04:08:29;0.60;99.90
63802;DHT22;49949;43.060;25.624;2024-03-22T04:10:56;0.40;99.90
63802;DHT22;49949;43.060;25.624;2024-03-22T04:13:23;0.40;99.90
63802;DHT22;49949;43.060;25.624;2024-03-22T04:15:49;0.40;99.90
63802;DHT22;49949;43.060;25.624;2024-03-22T04:18:14;0.30;99.90
63802;DHT22;49949;43.060;25.624;2024-03-22T04:20:40;0.40;99.90
63802;DHT22;49949;43.060;25.624;2024-03-22T04:23:06;0.30;99.90
63802;DHT22;49949;43.060;25.624;2024-03-22T04:25:31;0.30;99.90
63802;DHT22;49949;43.060;25.624;2024-03-22T04:27:57;0.20;99.90
63802;DHT22;49949;43.060;25.624;2024-03-22T04:30:23;0.20;99.90
63802;DHT22;49949;43.060;25.624;2024-03-22T04:32:48;0.20;99.90
63802;DHT22;49949;43.060;25.624;2024-03-22T04:35:14;0.30;99.90
63802;DHT22;49949;43.060;25.624;2024-03-22T04:37:40;0.40;99.90
63802;DHT22;49949;43.060;25.624;2024-03-22T04:40:06;0.40;99.90
63802;DHT22;49949;43.060;25.624;2024-03-22T04:42:32;0.40;99.90
63802;DHT22;49949;43.060;25.624;2024-03-22T04:44:57;0.40;99.90
63802;DHT22;49949;43.060;25.624;2024-03-22T04:47:23;0.30;99.90
63802;DHT22;49949;43.060;25.624;2024-03-22T04:49:49;0.30;99.90
63802;DHT22;49949;43.060;25.624;2024-03-22T04:52:15;0.40;99.90
63802;DHT22;49949;43.060;25.624;2024-03-22T04:54:40;0.40;99.90
63802;DHT22;49949;43.060;25.624;2024-03-22T04:57:06;0.50;99.90
63802;DHT22;49949;43.060;25.624;2024-03-22T04:59:32;0.60;99.90
63802;DHT22;49949;43.060;25.624;2024-03-22T05:01:57;0.70;99.90
63802;DHT22;49949;43.060;25.624;2024-03-22T05:04:23;0.70;99.90
63802;DHT22;49949;43.060;25.624;2024-03-22T05:06:49;0.80;99.90
63802;DHT22;49949;43.060;25.624;2024-03-22T05:09:15;0.80;99.90
63802;DHT22;49949;43.060;25.624;2024-03-22T05:11:41;0.80;99.90
63802;DHT22;49949;43.060;25.624;2024-03-22T05:14:06;0.90;99.90
63802;DHT22;49949;43.060;25.624;2024-03-22T05:16:32;0.90;99.90
63802;DHT22;49949;43.060;25.624;2024-03-22T05:18:58;1.00;99.90
63802;DHT22;49949;43.060;25.624;2024-03-22T05:21:24;1.00;99.90
63802;DHT22;49949;43.060;25.624;2024-03-22T05:23:49;1.10;99.90
63802;DHT22;49949;43.060;25.624;2024-03-22T05:26:15;1.20;99.90
63802;DHT22;49949;43.060;25.624;2024-03-22T05:28:41;1.20;99.90
63802;DHT22;49949;43.060;25.624;2024-03-22T05:31:06;1.30;99.90
63802;DHT22;49949;43.060;25.624;2024-03-22T05:33:32;1.40;99.90
63802;DHT22;49949;43.060;25.624;2024-03-22T05:35:58;1.50;99.90
63802;DHT22;49949;43.060;25.624;2024-03-22T05:38:24;1.60;99.90
63802;DHT22;49949;43.060;25.624;2024-03-22T05:40:50;1.70;99.90
63802;DHT22;49949;43.060;25.624;2024-03-22T05:43:16;1.70;99.90
63802;DHT22;49949;43.060;25.624;2024-03-22T05:45:41;1.80;99.90
63802;DHT22;49949;43.060;25.624;2024-03-22T05:48:07;1.80;99.90
63802;DHT22;49949;43.060;25.624;2024-03-22T05:50:33;1.90;99.90
63802;DHT22;49949;43.060;25.624;2024-03-22T05:52:58;2.00;99.90
63802;DHT22;49949;43.060;25.624;2024-03-22T05:55:24;2.00;99.90
63802;DHT22;49949;43.060;25.624;2024-03-22T05:57:52;2.00;99.90
63802;DHT22;49949;43.060;25.624;2024-03-22T06:00:18;2.20;99.90
63802;DHT22;49949;43.060;25.624;2024-03-22T06:02:44;2.20;99.90
63802;DHT22;49949;43.060;25.624;2024-03-22T06:05:10;2.30;99.90
63802;DHT22;49949;43.060;25.624;2024-03-22T06:07:35;2.40;99.90
63802;DHT22;49949;43.060;25.624;2024-03-22T06:10:08;2.60;99.90
63802;DHT22;49949;43.060;25.624;2024-03-22T06:12:33;2.80;99.90
63802;DHT22;49949;43.060;25.624;2024-03-22T06:14:59;3.00;99.90
63802;DHT22;49949;43.060;25.624;2024-03-22T06:17:25;3.10;99.90
63802;DHT22;49949;43.060;25.624;2024-03-22T06:19:50;3.20;99.90
63802;DHT22;49949;43.060;25.624;2024-03-22T06:22:16;3.30;99.90
63802;DHT22;49949;43.060;25.624;2024-03-22T06:24:42;3.50;99.90
63802;DHT22;49949;43.060;25.624;2024-03-22T06:27:09;3.70;99.90
63802;DHT22;49949;43.060;25.624;2024-03-22T06:29:35;3.80;99.90
63802;DHT22;49949;43.060;25.624;2024-03-22T06:32:01;4.00;99.90
63802;DHT22;49949;43.060;25.624;2024-03-22T06:34:27;4.20;99.90
63802;DHT22;49949;43.060;25.624;2024-03-22T06:36:52;4.30;99.90
63802;DHT22;49949;43.060;25.624;2024-03-22T06:39:18;4.50;99.90
63802;DHT22;49949;43.060;25.624;2024-03-22T06:41:45;4.60;99.90
63802;DHT22;49949;43.060;25.624;2024-03-22T06:44:10;4.80;99.90
63802;DHT22;49949;43.060;25.624;2024-03-22T06:46:37;5.00;99.90
63802;DHT22;49949;43.060;25.624;2024-03-22T06:49:03;5.10;99.90
63802;DHT22;49949;43.060;25.624;2024-03-22T06:51:29;5.30;99.90
63802;DHT22;49949;43.060;25.624;2024-03-22T06:53:54;5.50;99.90
63802;DHT22;49949;43.060;25.624;2024-03-22T06:56:20;5.70;99.90
63802;DHT22;49949;43.060;25.624;2024-03-22T06:58:46;5.90;99.90
63802;DHT22;49949;43.060;25.624;2024-03-22T07:01:12;6.10;99.90
63802;DHT22;49949;43.060;25.624;2024-03-22T07:03:38;6.20;99.90
63802;DHT22;49949;43.060;25.624;2024-03-22T07:06:04;6.40;99.90
63802;DHT22;49949;43.060;25.624;2024-03-22T07:08:32;6.50;99.90
63802;DHT22;49949;43.060;25.624;2024-03-22T07:10:58;6.70;99.90
63802;DHT22;49949;43.060;25.624;2024-03-22T07:13:25;6.90;99.90
63802;DHT22;49949;43.060;25.624;2024-03-22T07:15:50;7.00;99.90
63802;DHT22;49949;43.060;25.624;2024-03-22T07:18:16;7.10;99.90
63802;DHT22;49949;43.060;25.624;2024-03-22T07:20:42;7.20;99.90
63802;DHT22;49949;43.060;25.624;2024-03-22T07:23:08;7.30;99.90
63802;DHT22;49949;43.060;25.624;2024-03-22T07:25:34;7.40;99.90
63802;DHT22;49949;43.060;25.624;2024-03-22T07:28:00;7.40;99.90
63802;DHT22;49949;43.060;25.624;2024-03-22T07:30:26;7.60;99.90
63802;DHT22;49949;43.060;25.624;2024-03-22T07:32:51;7.80;99.90
63802;DHT22;49949;43.060;25.624;2024-03-22T07:35:17;7.90;99.90
63802;DHT22;49949;43.060;25.624;2024-03-22T07:37:42;8.10;99.90
63802;DHT22;49949;43.060;25.624;2024-03-22T07:40:08;8.90;99.90
63802;DHT22;49949;43.060;25.624;2024-03-22T07:42:35;11.00;99.90
63802;DHT22;49949;43.060;25.624;2024-03-22T07:45:00;12.50;99.90
63802;DHT22;49949;43.060;25.624;2024-03-22T07:47:26;13.60;95.40
63802;DHT22;49949;43.060;25.624;2024-03-22T07:49:52;13.90;89.50
63802;DHT22;49949;43.060;25.624;2024-03-22T07:52:17;13.40;89.60
63802;DHT22;49949;43.060;25.624;2024-03-22T07:54:43;14.00;90.10
63802;DHT22;49949;43.060;25.624;2024-03-22T07:57:09;14.00;88.80
63802;DHT22;49949;43.060;25.624;2024-03-22T07:59:36;13.70;87.30
63802;DHT22;49949;43.060;25.624;2024-03-22T08:02:02;13.30;89.60
63802;DHT22;49949;43.060;25.624;2024-03-22T08:04:28;12.70;90.70
63802;DHT22;49949;43.060;25.624;2024-03-22T08:06:54;11.90;90.50
63802;DHT22;49949;43.060;25.624;2024-03-22T08:09:20;11.70;94.10
63802;DHT22;49949;43.060;25.624;2024-03-22T08:11:46;11.80;95.30
63802;DHT22;49949;43.060;25.624;2024-03-22T08:14:11;12.00;95.10
63802;DHT22;49949;43.060;25.624;2024-03-22T08:16:37;12.10;95.40
63802;DHT22;49949;43.060;25.624;2024-03-22T08:19:03;12.00;94.10
63802;DHT22;49949;43.060;25.624;2024-03-22T08:21:28;11.80;93.80
63802;DHT22;49949;43.060;25.624;2024-03-22T08:23:54;11.60;94.90
63802;DHT22;49949;43.060;25.624;2024-03-22T08:26:20;11.60;97.20
63802;DHT22;49949;43.060;25.624;2024-03-22T08:28:46;11.60;94.20
63802;DHT22;49949;43.060;25.624;2024-03-22T08:31:13;11.30;94.50
63802;DHT22;49949;43.060;25.624;2024-03-22T08:33:39;11.40;93.90
63802;DHT22;49949;43.060;25.624;2024-03-22T08:36:05;11.40;93.90
63802;DHT22;49949;43.060;25.624;2024-03-22T08:38:31;11.00;94.70
63802;DHT22;49949;43.060;25.624;2024-03-22T08:40:57;11.10;97.10
63802;DHT22;49949;43.060;25.624;2024-03-22T08:43:22;11.20;95.80
63802;DHT22;49949;43.060;25.624;2024-03-22T08:45:51;11.20;96.10
63802;DHT22;49949;43.060;25.624;2024-03-22T08:48:17;11.50;97.30
63802;DHT22;49949;43.060;25.624;2024-03-22T08:50:44;11.80;96.00
63802;DHT22;49949;43.060;25.624;2024-03-22T08:53:09;11.80;95.80
63802;DHT22;49949;43.060;25.624;2024-03-22T08:55:35;11.90;94.80
63802;DHT22;49949;43.060;25.624;2024-03-22T08:58:01;11.90;95.80
63802;DHT22;49949;43.060;25.624;2024-03-22T09:00:26;12.10;94.70
63802;DHT22;49949;43.060;25.624;2024-03-22T09:02:52;12.30;92.70
63802;DHT22;49949;43.060;25.624;2024-03-22T09:05:18;12.40;90.80
63802;DHT22;49949;43.060;25.624;2024-03-22T09:07:44;12.30;90.20
63802;DHT22;49949;43.060;25.624;2024-03-22T09:10:10;12.40;92.80
63802;DHT22;49949;43.060;25.624;2024-03-22T09:12:37;12.20;90.00
63802;DHT22;49949;43.060;25.624;2024-03-22T09:15:03;12.00;90.90
63802;DHT22;49949;43.060;25.624;2024-03-22T09:17:28;12.00;91.50
63802;DHT22;49949;43.060;25.624;2024-03-22T09:19:55;12.10;87.40
63802;DHT22;49949;43.060;25.624;2024-03-22T09:22:20;12.20;86.40
63802;DHT22;49949;43.060;25.624;2024-03-22T09:24:46;12.10;83.70
63802;DHT22;49949;43.060;25.624;2024-03-22T09:27:12;11.70;85.50
63802;DHT22;49949;43.060;25.624;2024-03-22T09:29:37;11.70;85.60
63802;DHT22;49949;43.060;25.624;2024-03-22T09:32:04;11.70;85.60
63802;DHT22;49949;43.060;25.624;2024-03-22T09:34:30;11.80;85.10
63802;DHT22;49949;43.060;25.624;2024-03-22T09:36:56;11.70;85.50
63802;DHT22;49949;43.060;25.624;2024-03-22T09:39:22;11.60;86.40
63802;DHT22;49949;43.060;25.624;2024-03-22T09:41:50;11.60;87.30
63802;DHT22;49949;43.060;25.624;2024-03-22T09:44:18;11.60;87.10
63802;DHT22;49949;43.060;25.624;2024-03-22T09:46:48;11.60;88.80
63802;DHT22;49949;43.060;25.624;2024-03-22T09:49:15;11.60;89.30
63802;DHT22;49949;43.060;25.624;2024-03-22T09:51:43;11.50;89.00
63802;DHT22;49949;43.060;25.624;2024-03-22T09:54:10;11.40;89.00
63802;DHT22;49949;43.060;25.624;2024-03-22T09:56:38;11.30;89.90
63802;DHT22;49949;43.060;25.624;2024-03-22T09:59:05;11.50;90.80
63802;DHT22;49949;43.060;25.624;2024-03-22T10:01:33;11.70;90.90
63802;DHT22;49949;43.060;25.624;2024-03-22T10:03:59;11.70;91.10
63802;DHT22;49949;43.060;25.624;2024-03-22T10:06:25;11.70;91.80
63802;DHT22;49949;43.060;25.624;2024-03-22T10:08:51;11.90;91.00
63802;DHT22;49949;43.060;25.624;2024-03-22T10:11:16;12.00;90.90
63802;DHT22;49949;43.060;25.624;2024-03-22T10:13:43;12.20;90.90
63802;DHT22;49949;43.060;25.624;2024-03-22T10:16:10;12.20;91.10
63802;DHT22;49949;43.060;25.624;2024-03-22T10:18:36;12.30;93.40
63802;DHT22;49949;43.060;25.624;2024-03-22T10:21:05;12.00;92.10
63802;DHT22;49949;43.060;25.624;2024-03-22T10:23:31;12.00;92.50
63802;DHT22;49949;43.060;25.624;2024-03-22T10:25:58;12.30;93.30
63802;DHT22;49949;43.060;25.624;2024-03-22T10:28:27;12.50;92.10
63802;DHT22;49949;43.060;25.624;2024-03-22T10:30:53;12.60;90.70
63802;DHT22;49949;43.060;25.624;2024-03-22T10:33:22;12.70;90.20
63802;DHT22;49949;43.060;25.624;2024-03-22T10:35:53;12.80;89.70
63802;DHT22;49949;43.060;25.624;2024-03-22T10:38:19;12.70;91.30
63802;DHT22;49949;43.060;25.624;2024-03-22T10:40:46;12.80;91.80
63802;DHT22;49949;43.060;25.624;2024-03-22T10:43:15;12.60;90.40
63802;DHT22;49949;43.060;25.624;2024-03-22T10:45:41;12.30;91.80
63802;DHT22;49949;43.060;25.624;2024-03-22T10:48:11;12.50;91.90
63802;DHT22;49949;43.060;25.624;2024-03-22T10:50:41;12.40;91.00
63802;DHT22;49949;43.060;25.624;2024-03-22T10:53:15;12.30;91.90
63802;DHT22;49949;43.060;25.624;2024-03-22T10:55:46;12.30;92.70
63802;DHT22;49949;43.060;25.624;2024-03-22T10:58:21;12.50;92.00
63802;DHT22;49949;43.060;25.624;2024-03-22T11:00:50;12.60;92.40
63802;DHT22;49949;43.060;25.624;2024-03-22T11:03:19;12.60;90.50
63802;DHT22;49949;43.060;25.624;2024-03-22T11:05:49;12.30;91.80
63802;DHT22;49949;43.060;25.624;2024-03-22T11:08:25;12.40;91.70
63802;DHT22;49949;43.060;25.624;2024-03-22T11:10:52;12.40;91.30
63802;DHT22;49949;43.060;25.624;2024-03-22T11:13:18;12.20;90.20
63802;DHT22;49949;43.060;25.624;2024-03-22T11:15:43;12.20;89.60
63802;DHT22;49949;43.060;25.624;2024-03-22T11:18:09;12.30;90.80
63802;DHT22;49949;43.060;25.624;2024-03-22T11:20:38;12.10;90.90
63802;DHT22;49949;43.060;25.624;2024-03-22T11:23:04;12.10;90.60
63802;DHT22;49949;43.060;25.624;2024-03-22T11:25:34;12.30;91.20
63802;DHT22;49949;43.060;25.624;2024-03-22T11:28:00;12.40;92.30
63802;DHT22;49949;43.060;25.624;2024-03-22T11:30:32;12.50;89.30
63802;DHT22;49949;43.060;25.624;2024-03-22T11:33:00;12.40;89.30
63802;DHT22;49949;43.060;25.624;2024-03-22T11:35:26;12.20;90.00
63802;DHT22;49949;43.060;25.624;2024-03-22T11:37:52;12.30;92.00
63802;DHT22;49949;43.060;25.624;2024-03-22T11:40:18;12.30;90.90
63802;DHT22;49949;43.060;25.624;2024-03-22T11:42:49;12.20;92.20
63802;DHT22;49949;43.060;25.624;2024-03-22T11:45:18;12.10;93.80
63802;DHT22;49949;43.060;25.624;2024-03-22T11:47:45;12.30;92.70
63802;DHT22;49949;43.060;25.624;2024-03-22T11:50:12;12.40;92.90
63802;DHT22;49949;43.060;25.624;2024-03-22T11:52:41;12.60;93.60
63802;DHT22;49949;43.060;25.624;2024-03-22T11:55:07;12.80;93.40
63802;DHT22;49949;43.060;25.624;2024-03-22T11:57:33;13.10;92.30
63802;DHT22;49949;43.060;25.624;2024-03-22T11:59:59;13.20;90.20
63802;DHT22;49949;43.060;25.624;2024-03-22T12:02:25;13.10;91.10
63802;DHT22;49949;43.060;25.624;2024-03-22T12:04:51;13.20;92.00
63802;DHT22;49949;43.060;25.624;2024-03-22T12:07:17;13.20;92.40
63802;DHT22;49949;43.060;25.624;2024-03-22T12:09:46;13.30;91.00
63802;DHT22;49949;43.060;25.624;2024-03-22T12:12:13;13.30;92.60
63802;DHT22;49949;43.060;25.624;2024-03-22T12:14:39;13.50;91.10
63802;DHT22;49949;43.060;25.624;2024-03-22T12:17:06;13.50;91.20
63802;DHT22;49949;43.060;25.624;2024-03-22T12:19:32;13.60;90.70
63802;DHT22;49949;43.060;25.624;2024-03-22T12:21:58;13.70;88.40
63802;DHT22;49949;43.060;25.624;2024-03-22T12:24:24;13.70;88.60
63802;DHT22;49949;43.060;25.624;2024-03-22T12:26:50;13.60;87.00
63802;DHT22;49949;43.060;25.624;2024-03-22T12:29:16;13.60;89.00
63802;DHT22;49949;43.060;25.624;2024-03-22T12:31:42;13.60;89.40
63802;DHT22;49949;43.060;25.624;2024-03-22T12:34:08;13.70;89.30
63802;DHT22;49949;43.060;25.624;2024-03-22T12:36:34;13.80;89.20
63802;DHT22;49949;43.060;25.624;2024-03-22T12:39:00;13.90;88.00
63802;DHT22;49949;43.060;25.624;2024-03-22T12:41:27;13.80;87.50
63802;DHT22;49949;43.060;25.624;2024-03-22T12:43:54;13.70;87.90
63802;DHT22;49949;43.060;25.624;2024-03-22T12:46:20;13.60;88.30
63802;DHT22;49949;43.060;25.624;2024-03-22T12:48:46;13.70;90.70
63802;DHT22;49949;43.060;25.624;2024-03-22T12:51:11;13.70;88.40
63802;DHT22;49949;43.060;25.624;2024-03-22T12:53:37;13.60;88.30
63802;DHT22;49949;43.060;25.624;2024-03-22T12:56:04;13.50;89.00
63802;DHT22;49949;43.060;25.624;2024-03-22T12:58:33;13.40;89.60
63802;DHT22;49949;43.060;25.624;2024-03-22T13:00:59;13.30;90.40
63802;DHT22;49949;43.060;25.624;2024-03-22T13:03:26;13.40;88.90
63802;DHT22;49949;43.060;25.624;2024-03-22T13:05:52;13.30;90.20
63802;DHT22;49949;43.060;25.624;2024-03-22T13:08:19;13.30;91.40
63802;DHT22;49949;43.060;25.624;2024-03-22T13:10:48;13.40;88.80
63802;DHT22;49949;43.060;25.624;2024-03-22T13:13:14;13.40;90.40
63802;DHT22;49949;43.060;25.624;2024-03-22T13:15:42;13.50;90.90
63802;DHT22;49949;43.060;25.624;2024-03-22T13:18:08;13.30;88.70
63802;DHT22;49949;43.060;25.624;2024-03-22T13:20:35;13.20;89.30
63802;DHT22;49949;43.060;25.624;2024-03-22T13:23:01;13.00;89.70
63802;DHT22;49949;43.060;25.624;2024-03-22T13:25:27;13.00;89.70
63802;DHT22;49949;43.060;25.624;2024-03-22T13:27:53;12.90;90.90
63802;DHT22;49949;43.060;25.624;2024-03-22T13:30:19;13.00;91.10
63802;DHT22;49949;43.060;25.624;2024-03-22T13:32:45;12.90;90.80
63802;DHT22;49949;43.060;25.624;2024-03-22T13:35:10;13.00;90.70
63802;DHT22;49949;43.060;25.624;2024-03-22T13:37:36;13.00;90.50
63802;DHT22;49949;43.060;25.624;2024-03-22T13:40:02;13.10;90.90
63802;DHT22;49949;43.060;25.624;2024-03-22T13:42:28;13.10;91.20
63802;DHT22;49949;43.060;25.624;2024-03-22T13:44:54;13.10;91.70
63802;DHT22;49949;43.060;25.624;2024-03-22T13:47:20;13.10;91.80
63802;DHT22;49949;43.060;25.624;2024-03-22T13:49:46;13.20;92.30
63802;DHT22;49949;43.060;25.624;2024-03-22T13:52:12;13.30;90.90
63802;DHT22;49949;43.060;25.624;2024-03-22T13:54:38;13.40;90.80
63802;DHT22;49949;43.060;25.624;2024-03-22T13:57:04;13.50;90.00
63802;DHT22;49949;43.060;25.624;2024-03-22T13:59:30;13.60;89.50
63802;DHT22;49949;43.060;25.624;2024-03-22T14:01:56;13.60;89.60
63802;DHT22;49949;43.060;25.624;2024-03-22T14:04:25;13.60;90.60
63802;DHT22;49949;43.060;25.624;2024-03-22T14:06:54;13.60;89.20
63802;DHT22;49949;43.060;25.624;2024-03-22T14:09:20;13.70;90.60
63802;DHT22;49949;43.060;25.624;2024-03-22T14:11:45;13.80;90.50
63802;DHT22;49949;43.060;25.624;2024-03-22T14:14:14;13.90;90.10
63802;DHT22;49949;43.060;25.624;2024-03-22T14:16:40;14.00;89.60
63802;DHT22;49949;43.060;25.624;2024-03-22T14:19:07;14.00;89.00
63802;DHT22;49949;43.060;25.624;2024-03-22T14:21:34;14.00;87.70
63802;DHT22;49949;43.060;25.624;2024-03-22T14:24:00;13.90;87.80
63802;DHT22;49949;43.060;25.624;2024-03-22T14:26:25;13.60;87.60
63802;DHT22;49949;43.060;25.624;2024-03-22T14:28:51;13.60;90.00
63802;DHT22;49949;43.060;25.624;2024-03-22T14:31:18;13.60;90.10
63802;DHT22;49949;43.060;25.624;2024-03-22T14:33:45;13.60;89.30
63802;DHT22;49949;43.060;25.624;2024-03-22T14:36:11;13.60;88.70
63802;DHT22;49949;43.060;25.624;2024-03-22T14:38:38;13.70;89.70
63802;DHT22;49949;43.060;25.624;2024-03-22T14:41:05;13.70;90.20
63802;DHT22;49949;43.060;25.624;2024-03-22T14:43:30;13.70;89.70
63802;DHT22;49949;43.060;25.624;2024-03-22T14:46:01;13.60;89.30
63802;DHT22;49949;43.060;25.624;2024-03-22T14:48:28;13.60;90.00
63802;DHT22;49949;43.060;25.624;2024-03-22T14:50:54;13.70;90.10
63802;DHT22;49949;43.060;25.624;2024-03-22T14:53:20;13.60;90.00
63802;DHT22;49949;43.060;25.624;2024-03-22T14:55:58;13.50;89.50
63802;DHT22;49949;43.060;25.624;2024-03-22T14:58:27;13.40;91.10
63802;DHT22;49949;43.060;25.624;2024-03-22T15:00:59;13.50;91.10
63802;DHT22;49949;43.060;25.624;2024-03-22T15:03:25;13.50;88.60
63802;DHT22;49949;43.060;25.624;2024-03-22T15:05:51;13.50;89.80
63802;DHT22;49949;43.060;25.624;2024-03-22T15:08:17;13.50;88.80
63802;DHT22;49949;43.060;25.624;2024-03-22T15:10:44;13.40;89.80
63802;DHT22;49949;43.060;25.624;2024-03-22T15:13:10;13.40;90.30
63802;DHT22;49949;43.060;25.624;2024-03-22T15:15:36;13.40;90.60